createdAt,value
2017-10-19T00:00:28.303Z,101249.05
2017-10-19T00:02:57.200Z,101240.52
2017-10-19T00:05:25.553Z,101245.20
2017-10-19T00:07:53.893Z,101243.77
2017-10-19T00:10:22.381Z,101250.39
2017-10-19T00:12:51.496Z,101245.72
2017-10-19T00:15:19.887Z,101244.64
2017-10-19T00:17:48.276Z,101245.17
2017-10-19T00:20:16.625Z,101246.78
2017-10-19T00:22:44.987Z,101248.45
2017-10-19T00:25:14.149Z,101257.02
2017-10-19T00:27:42.522Z,101251.31
2017-10-19T00:30:10.875Z,101254.81
2017-10-19T00:32:39.456Z,101253.48
2017-10-19T00:35:07.829Z,101253.89
2017-10-19T00:37:36.171Z,101252.48
2017-10-19T00:40:04.539Z,101257.67
2017-10-19T00:42:32.895Z,101260.92
2017-10-19T00:45:01.273Z,101254.66
2017-10-19T00:47:29.641Z,101250.05
2017-10-19T00:49:58.002Z,101246.78
2017-10-19T00:52:26.353Z,101259.03
2017-10-19T00:54:55.788Z,101254.19
2017-10-19T00:57:24.159Z,101247.12
2017-10-19T00:59:52.524Z,101247.33
2017-10-19T01:02:20.903Z,101244.31
2017-10-19T01:04:50.033Z,101247.16
2017-10-19T01:07:18.377Z,101247.19
2017-10-19T01:09:46.759Z,101240.53
2017-10-19T01:12:15.874Z,101230.81
2017-10-19T01:14:44.240Z,101235.61
2017-10-19T01:17:12.750Z,101226.47
2017-10-19T01:19:41.179Z,101220.94
2017-10-19T01:22:09.532Z,101221.42
2017-10-19T01:24:37.918Z,101229.89
2017-10-19T01:27:06.282Z,101223.59
2017-10-19T01:29:34.636Z,101225.35
2017-10-19T01:32:03.627Z,101226.36
2017-10-19T01:34:31.972Z,101219.30
2017-10-19T01:37:00.326Z,101221.22
2017-10-19T01:39:28.761Z,101224.15
2017-10-19T01:41:57.100Z,101222.89
2017-10-19T01:44:25.466Z,101229.36
2017-10-19T01:46:53.849Z,101224.48
2017-10-19T01:49:22.235Z,101222.67
2017-10-19T01:51:50.602Z,101221.94
2017-10-19T01:54:18.969Z,101224.06
2017-10-19T01:56:47.587Z,101223.39
2017-10-19T01:59:15.947Z,101224.05
2017-10-19T02:01:44.771Z,101228.80
2017-10-19T02:04:13.150Z,101228.23
2017-10-19T02:06:42.294Z,101227.23
2017-10-19T02:09:10.681Z,101227.95
2017-10-19T02:11:39.024Z,101227.59
2017-10-19T02:14:07.693Z,101228.27
2017-10-19T02:16:36.849Z,101226.75
2017-10-19T02:19:05.188Z,101227.84
2017-10-19T02:21:33.534Z,101231.32
2017-10-19T02:24:02.613Z,101230.29
2017-10-19T02:26:31.721Z,101228.69
2017-10-19T02:29:00.378Z,101236.77
2017-10-19T02:31:29.546Z,101234.32
2017-10-19T02:33:57.904Z,101233.05
2017-10-19T02:36:27.042Z,101234.98
2017-10-19T02:38:55.421Z,101242.17
2017-10-19T02:41:24.573Z,101238.41
2017-10-19T02:43:52.910Z,101236.47
2017-10-19T02:46:22.267Z,101235.20
2017-10-19T02:48:51.388Z,101231.05
2017-10-19T02:51:19.830Z,101233.50
2017-10-19T02:53:48.981Z,101224.28
2017-10-19T02:56:17.330Z,101228.29
2017-10-19T02:58:45.662Z,101232.92
2017-10-19T03:01:14.042Z,101231.95
2017-10-19T03:03:42.394Z,101232.87
2017-10-19T03:06:10.738Z,101237.38
2017-10-19T03:08:39.180Z,101238.83
2017-10-19T03:11:07.529Z,101229.59
2017-10-19T03:13:36.252Z,101224.68
2017-10-19T03:16:04.626Z,101228.34
2017-10-19T03:18:32.980Z,101234.89
2017-10-19T03:21:01.658Z,101237.75
2017-10-19T03:23:30.224Z,101233.44
2017-10-19T03:25:58.568Z,101242.45
2017-10-19T03:28:27.101Z,101239.02
2017-10-19T03:30:56.333Z,101235.20
2017-10-19T03:33:24.681Z,101233.29
2017-10-19T03:35:53.039Z,101233.53
2017-10-19T03:38:21.406Z,101232.34
2017-10-19T03:40:50.500Z,101228.55
2017-10-19T03:43:19.639Z,101223.43
2017-10-19T03:45:48.088Z,101224.30
2017-10-19T03:48:16.439Z,101222.36
2017-10-19T03:50:44.785Z,101220.80
2017-10-19T03:53:13.325Z,101217.06
2017-10-19T03:55:42.438Z,101216.16
2017-10-19T03:58:10.805Z,101223.03
2017-10-19T04:00:39.182Z,101228.08
2017-10-19T04:03:07.525Z,101224.39
2017-10-19T04:05:35.862Z,101222.11
2017-10-19T04:08:04.238Z,101229.91
2017-10-19T04:10:32.585Z,101222.33
2017-10-19T04:13:01.679Z,101218.98
2017-10-19T04:15:30.233Z,101214.78
2017-10-19T04:17:59.383Z,101214.08
2017-10-19T04:20:27.739Z,101205.34
2017-10-19T04:22:56.881Z,101211.55
2017-10-19T04:25:25.214Z,101202.58
2017-10-19T04:27:54.342Z,101206.34
2017-10-19T04:30:22.746Z,101208.02
2017-10-19T04:32:51.124Z,101215.05
2017-10-19T04:35:19.482Z,101217.97
2017-10-19T04:37:48.060Z,101225.70
2017-10-19T04:40:16.401Z,101215.23
2017-10-19T04:42:44.750Z,101215.56
2017-10-19T04:45:13.099Z,101218.17
2017-10-19T04:47:41.522Z,101225.22
2017-10-19T04:50:09.967Z,101230.19
2017-10-19T04:52:38.333Z,101229.32
2017-10-19T04:55:06.683Z,101229.38
2017-10-19T04:57:36.075Z,101221.81
2017-10-19T05:00:05.341Z,101228.25
2017-10-19T05:02:33.684Z,101223.71
2017-10-19T05:05:02.089Z,101223.01
2017-10-19T05:07:30.453Z,101225.62
2017-10-19T05:09:58.790Z,101220.88
2017-10-19T05:12:27.136Z,101234.94
2017-10-19T05:14:55.509Z,101232.53
2017-10-19T05:17:23.855Z,101233.66
2017-10-19T05:19:52.200Z,101232.06
2017-10-19T05:22:21.951Z,101230.77
2017-10-19T05:24:51.173Z,101225.70
2017-10-19T05:27:19.529Z,101223.02
2017-10-19T05:29:48.685Z,101216.04
2017-10-19T05:32:17.053Z,101216.92
2017-10-19T05:34:45.406Z,101222.66
2017-10-19T05:37:13.769Z,101223.09
2017-10-19T05:39:42.109Z,101222.02
2017-10-19T05:42:10.452Z,101223.58
2017-10-19T05:44:39.021Z,101226.75
2017-10-19T05:47:07.382Z,101218.98
2017-10-19T05:49:35.846Z,101221.95
2017-10-19T05:52:04.973Z,101218.30
2017-10-19T05:54:33.301Z,101221.17
2017-10-19T05:57:01.639Z,101221.56
2017-10-19T05:59:30.974Z,101227.89
2017-10-19T06:01:59.338Z,101221.86
2017-10-19T06:04:27.682Z,101227.44
2017-10-19T06:06:56.458Z,101221.62
2017-10-19T06:09:24.821Z,101217.30
2017-10-19T06:11:53.194Z,101212.75
2017-10-19T06:14:21.567Z,101217.22
2017-10-19T06:16:49.910Z,101219.34
2017-10-19T06:19:18.316Z,101230.14
2017-10-19T06:21:46.689Z,101231.17
2017-10-19T06:24:15.042Z,101237.80
2017-10-19T06:26:43.403Z,101232.27
2017-10-19T06:29:12.282Z,101234.48
2017-10-19T06:31:40.654Z,101240.73
2017-10-19T06:34:09.771Z,101248.20
2017-10-19T06:36:38.145Z,101239.34
2017-10-19T06:39:06.478Z,101240.73
2017-10-19T06:41:35.340Z,101235.75
2017-10-19T06:44:03.720Z,101236.92
2017-10-19T06:46:32.116Z,101237.91
2017-10-19T06:49:00.491Z,101232.25
2017-10-19T06:51:29.089Z,101235.48
2017-10-19T06:53:57.460Z,101230.48
2017-10-19T06:56:25.832Z,101227.06
2017-10-19T06:58:54.210Z,101242.45
2017-10-19T07:01:22.570Z,101240.66
2017-10-19T07:03:50.982Z,101242.00
2017-10-19T07:06:19.346Z,101241.88
2017-10-19T07:08:48.757Z,101246.23
2017-10-19T07:11:17.110Z,101249.06
2017-10-19T07:13:45.677Z,101250.60
2017-10-19T07:16:14.018Z,101248.26
2017-10-19T07:18:42.378Z,101252.31
2017-10-19T07:21:10.753Z,101247.33
2017-10-19T07:23:39.665Z,101248.08
2017-10-19T07:26:08.026Z,101245.05
2017-10-19T07:28:36.437Z,101253.51
2017-10-19T07:31:05.553Z,101253.33
2017-10-19T07:33:33.910Z,101255.80
2017-10-19T07:36:02.354Z,101258.13
2017-10-19T07:38:30.694Z,101260.16
2017-10-19T07:40:59.788Z,101262.25
2017-10-19T07:43:28.171Z,101264.98
2017-10-19T07:45:56.528Z,101266.42
2017-10-19T07:48:25.653Z,101270.95
2017-10-19T07:50:54.047Z,101270.17
2017-10-19T07:53:22.400Z,101267.71
2017-10-19T07:55:51.507Z,101256.95
2017-10-19T07:58:19.923Z,101254.52
2017-10-19T08:00:48.253Z,101251.73
2017-10-19T08:03:17.354Z,101266.45
2017-10-19T08:05:45.734Z,101259.61
2017-10-19T08:08:14.088Z,101255.95
2017-10-19T08:10:42.421Z,101256.30
2017-10-19T08:13:11.252Z,101249.77
2017-10-19T08:15:39.616Z,101253.65
2017-10-19T08:18:07.964Z,101247.39
2017-10-19T08:20:36.534Z,101255.46
2017-10-19T08:23:04.894Z,101250.89
2017-10-19T08:25:33.250Z,101256.52
2017-10-19T08:28:01.628Z,101256.41
2017-10-19T08:30:30.441Z,101254.93
2017-10-19T08:32:59.599Z,101266.67
2017-10-19T08:35:28.001Z,101259.09
2017-10-19T08:37:56.346Z,101256.47
2017-10-19T08:40:24.729Z,101256.63
2017-10-19T08:42:53.312Z,101247.19
2017-10-19T08:45:21.672Z,101243.81
2017-10-19T08:47:50.274Z,101251.88
2017-10-19T08:50:19.435Z,101252.91
2017-10-19T08:52:47.831Z,101256.01
2017-10-19T08:55:16.220Z,101253.91
2017-10-19T08:57:44.619Z,101247.10
2017-10-19T09:00:12.954Z,101243.61
2017-10-19T09:02:41.341Z,101240.45
2017-10-19T09:05:10.699Z,101241.53
2017-10-19T09:07:39.045Z,101242.68
2017-10-19T09:10:07.377Z,101243.06
2017-10-19T09:12:36.501Z,101242.23
2017-10-19T09:15:04.847Z,101242.77
2017-10-19T09:17:33.945Z,101235.73
2017-10-19T09:20:03.738Z,101237.64
2017-10-19T09:22:32.085Z,101237.33
2017-10-19T09:25:00.478Z,101233.13
2017-10-19T09:27:29.070Z,101224.66
2017-10-19T09:29:57.434Z,101222.71
2017-10-19T09:32:25.903Z,101220.50
2017-10-19T09:34:54.279Z,101211.53
2017-10-19T09:37:22.626Z,101214.14
2017-10-19T09:39:50.964Z,101213.95
2017-10-19T09:42:19.348Z,101212.72
2017-10-19T09:44:47.723Z,101219.41
2017-10-19T09:47:16.072Z,101213.24
2017-10-19T09:49:44.624Z,101210.47
2017-10-19T09:52:12.998Z,101219.59
2017-10-19T09:54:42.108Z,101222.75
2017-10-19T09:57:10.470Z,101225.09
2017-10-19T09:59:38.845Z,101218.17
2017-10-19T10:02:07.959Z,101219.78
2017-10-19T10:04:36.370Z,101224.91
2017-10-19T10:07:04.778Z,101229.61
2017-10-19T10:09:33.125Z,101231.06
2017-10-19T10:12:01.672Z,101232.25
2017-10-19T10:14:30.783Z,101236.41
2017-10-19T10:16:59.149Z,101239.53
2017-10-19T10:19:27.526Z,101233.13
2017-10-19T10:21:56.631Z,101233.09
2017-10-19T10:24:24.962Z,101240.20
2017-10-19T10:26:53.337Z,101238.21
2017-10-19T10:29:22.640Z,101244.72
2017-10-19T10:31:51.776Z,101240.73
2017-10-19T10:34:21.228Z,101249.33
2017-10-19T10:36:49.576Z,101240.86
2017-10-19T10:39:18.093Z,101242.96
2017-10-19T10:41:46.484Z,101244.41
2017-10-19T10:44:14.862Z,101252.66
2017-10-19T10:46:43.223Z,101246.87
2017-10-19T10:49:11.606Z,101254.35
2017-10-19T10:51:39.948Z,101248.03
2017-10-19T10:54:08.326Z,101247.77
2017-10-19T10:56:36.878Z,101252.48
2017-10-19T10:59:05.243Z,101249.38
2017-10-19T11:01:33.614Z,101248.69
2017-10-19T11:04:01.975Z,101244.17
2017-10-19T11:06:30.364Z,101244.31
2017-10-19T11:08:58.725Z,101240.80
2017-10-19T11:11:27.794Z,101246.53
2017-10-19T11:13:56.144Z,101248.97
2017-10-19T11:16:24.523Z,101248.18
2017-10-19T11:18:53.060Z,101242.53
2017-10-19T11:21:21.435Z,101240.03
2017-10-19T11:23:49.814Z,101241.62
2017-10-19T11:26:18.189Z,101229.41
2017-10-19T11:28:47.301Z,101226.45
2017-10-19T11:31:15.641Z,101217.09
2017-10-19T11:33:44.789Z,101221.84
2017-10-19T11:36:13.177Z,101217.94
2017-10-19T11:38:41.702Z,101221.00
2017-10-19T11:41:11.196Z,101216.27
2017-10-19T11:43:40.107Z,101221.22
2017-10-19T11:46:09.217Z,101212.98
2017-10-19T11:48:37.575Z,101217.96
2017-10-19T11:51:06.688Z,101206.06
2017-10-19T11:53:35.039Z,101202.90
2017-10-19T11:56:03.420Z,101188.34
2017-10-19T11:58:33.421Z,101184.58
2017-10-19T12:01:01.775Z,101182.50
2017-10-19T12:03:30.254Z,101184.69
2017-10-19T12:05:58.600Z,101183.78
2017-10-19T12:08:26.955Z,101187.16
2017-10-19T12:10:56.102Z,101178.97
2017-10-19T12:13:25.372Z,101181.27
2017-10-19T12:15:53.753Z,101180.08
2017-10-19T12:18:22.122Z,101182.37
2017-10-19T12:20:50.481Z,101179.52
2017-10-19T12:23:18.849Z,101182.92
2017-10-19T12:25:47.276Z,101182.72
2017-10-19T12:28:15.689Z,101179.73
2017-10-19T12:30:44.220Z,101177.62
2017-10-19T12:33:13.375Z,101173.31
2017-10-19T12:35:41.797Z,101171.75
2017-10-19T12:38:11.760Z,101163.41
2017-10-19T12:40:40.368Z,101164.15
2017-10-19T12:43:08.711Z,101164.19
2017-10-19T12:45:37.860Z,101162.38
2017-10-19T12:48:06.293Z,101154.82
2017-10-19T12:50:34.637Z,101157.12
2017-10-19T12:53:04.149Z,101153.69
2017-10-19T12:55:33.532Z,101150.83
2017-10-19T12:58:01.877Z,101151.13
2017-10-19T13:00:30.218Z,101155.99
2017-10-19T13:02:58.598Z,101148.95
2017-10-19T13:05:26.948Z,101147.05
2017-10-19T13:07:55.319Z,101150.08
2017-10-19T13:10:24.158Z,101142.66
2017-10-19T13:12:52.534Z,101138.87
2017-10-19T13:15:20.882Z,101130.87
2017-10-19T13:17:50.102Z,101132.92
2017-10-19T13:20:19.195Z,101134.12
2017-10-19T13:22:47.557Z,101124.19
2017-10-19T13:25:15.950Z,101129.66
2017-10-19T13:27:45.906Z,101126.59
2017-10-19T13:30:14.690Z,101122.52
2017-10-19T13:32:43.804Z,101121.45
2017-10-19T13:35:12.161Z,101116.03
2017-10-19T13:37:40.503Z,101113.70
2017-10-19T13:40:08.912Z,101113.27
2017-10-19T13:42:38.053Z,101114.20
2017-10-19T13:45:06.399Z,101107.29
2017-10-19T13:47:35.301Z,101103.91
2017-10-19T13:50:04.257Z,101102.23
2017-10-19T13:52:32.643Z,101090.81
2017-10-19T13:55:01.192Z,101088.91
2017-10-19T13:57:30.661Z,101086.80
2017-10-19T13:59:59.007Z,101086.70
2017-10-19T14:02:27.441Z,101081.13
2017-10-19T14:04:55.833Z,101078.87
2017-10-19T14:07:24.200Z,101072.30
2017-10-19T14:09:52.660Z,101073.49
2017-10-19T14:12:21.844Z,101067.23
2017-10-19T14:14:50.197Z,101067.46
2017-10-19T14:17:18.618Z,101065.86
2017-10-19T14:19:46.994Z,101067.13
2017-10-19T14:22:15.355Z,101069.55
2017-10-19T14:24:43.732Z,101071.52
2017-10-19T14:27:12.089Z,101073.94
2017-10-19T14:29:41.220Z,101067.32
2017-10-19T14:32:09.608Z,101074.17
2017-10-19T14:34:38.627Z,101077.13
2017-10-19T14:37:07.218Z,101071.08
2017-10-19T14:39:36.007Z,101072.49
2017-10-19T14:42:04.362Z,101070.97
2017-10-19T14:44:32.742Z,101075.10
2017-10-19T14:47:01.182Z,101075.66
2017-10-19T14:49:29.537Z,101068.48
2017-10-19T14:51:57.994Z,101064.30
2017-10-19T14:54:26.815Z,101069.84
2017-10-19T14:56:55.923Z,101068.36
2017-10-19T14:59:24.286Z,101070.97
2017-10-19T15:01:52.868Z,101065.91
2017-10-19T15:04:22.781Z,101062.97
2017-10-19T15:06:51.758Z,101072.47
2017-10-19T15:09:20.697Z,101073.19
2017-10-19T15:11:49.047Z,101072.88
2017-10-19T15:14:18.197Z,101068.22
2017-10-19T15:16:46.566Z,101056.53
2017-10-19T15:19:14.935Z,101064.11
2017-10-19T15:21:43.272Z,101061.55
2017-10-19T15:24:11.866Z,101064.61
2017-10-19T15:26:40.988Z,101058.49
2017-10-19T15:29:09.348Z,101057.73
2017-10-19T15:31:37.738Z,101048.64
2017-10-19T15:34:06.103Z,101052.86
2017-10-19T15:36:34.474Z,101046.75
2017-10-19T15:39:02.860Z,101051.31
2017-10-19T15:41:32.580Z,101055.47
2017-10-19T15:44:01.726Z,101051.86
2017-10-19T15:46:30.245Z,101051.78
2017-10-19T15:48:59.387Z,101047.80
2017-10-19T15:51:27.807Z,101047.48
2017-10-19T15:53:56.587Z,101045.97
2017-10-19T15:56:24.983Z,101043.05
2017-10-19T15:58:53.354Z,101046.11
2017-10-19T16:01:21.734Z,101048.59
2017-10-19T16:03:50.103Z,101054.23
2017-10-19T16:06:18.449Z,101053.70
2017-10-19T16:08:47.490Z,101047.91
2017-10-19T16:11:15.842Z,101051.04
2017-10-19T16:13:44.277Z,101050.60
2017-10-19T16:16:13.481Z,101056.82
2017-10-19T16:18:42.624Z,101049.52
2017-10-19T16:21:11.146Z,101055.09
2017-10-19T16:23:40.278Z,101053.67
2017-10-19T16:26:08.619Z,101061.08
2017-10-19T16:28:37.744Z,101061.23
2017-10-19T16:31:06.190Z,101061.39
2017-10-19T16:33:34.537Z,101058.79
2017-10-19T16:36:02.897Z,101064.29
2017-10-19T16:38:31.315Z,101063.55
2017-10-19T16:40:59.754Z,101063.84
2017-10-19T16:43:28.103Z,101064.09
2017-10-19T16:45:57.239Z,101069.31
2017-10-19T16:48:25.583Z,101072.95
2017-10-19T16:50:54.699Z,101074.07
2017-10-19T16:53:23.264Z,101073.02
2017-10-19T16:55:51.923Z,101066.10
2017-10-19T16:58:20.278Z,101070.63
2017-10-19T17:00:48.657Z,101071.05
2017-10-19T17:03:17.025Z,101073.56
2017-10-19T17:05:45.403Z,101073.65
2017-10-19T17:08:13.766Z,101073.23
2017-10-19T17:10:42.907Z,101064.89
2017-10-19T17:13:11.266Z,101066.81
2017-10-19T17:15:39.993Z,101069.50
2017-10-19T17:18:08.375Z,101072.34
2017-10-19T17:20:37.486Z,101067.66
2017-10-19T17:23:06.633Z,101069.98
2017-10-19T17:25:35.036Z,101075.85
2017-10-19T17:28:03.384Z,101067.20
2017-10-19T17:30:31.789Z,101072.58
2017-10-19T17:33:00.180Z,101072.20
2017-10-19T17:35:28.694Z,101068.61
2017-10-19T17:37:57.395Z,101068.31
2017-10-19T17:40:25.756Z,101071.53
2017-10-19T17:42:54.109Z,101078.17
2017-10-19T17:45:23.285Z,101067.16
2017-10-19T17:47:53.064Z,101067.75
2017-10-19T17:50:21.474Z,101064.28
2017-10-19T17:52:49.933Z,101059.95
2017-10-19T17:55:18.297Z,101069.19
2017-10-19T17:57:47.064Z,101073.12
2017-10-19T18:00:15.841Z,101070.48
2017-10-19T18:02:44.247Z,101065.92
2017-10-19T18:05:12.614Z,101071.72
2017-10-19T18:07:41.774Z,101061.36
2017-10-19T18:10:10.143Z,101070.11
2017-10-19T18:12:38.493Z,101065.88
2017-10-19T18:15:06.871Z,101062.27
2017-10-19T18:17:35.319Z,101062.64
2017-10-19T18:20:04.471Z,101056.99
2017-10-19T18:22:33.343Z,101061.03
2017-10-19T18:25:01.716Z,101062.20
2017-10-19T18:27:30.350Z,101059.94
2017-10-19T18:29:59.542Z,101063.40
2017-10-19T18:32:27.913Z,101051.48
2017-10-19T18:34:57.077Z,101055.15
2017-10-19T18:37:26.178Z,101054.97
2017-10-19T18:39:54.966Z,101050.45
2017-10-19T18:42:23.337Z,101055.30
2017-10-19T18:44:52.810Z,101062.88
2017-10-19T18:47:21.927Z,101062.31
2017-10-19T18:49:50.360Z,101060.24
2017-10-19T18:52:18.976Z,101066.26
2017-10-19T18:54:47.326Z,101064.95
2017-10-19T18:57:15.693Z,101059.25
2017-10-19T18:59:44.089Z,101063.11
2017-10-19T19:02:12.467Z,101056.56
2017-10-19T19:04:40.836Z,101056.67
2017-10-19T19:07:10.128Z,101054.36
2017-10-19T19:09:38.537Z,101049.75
2017-10-19T19:12:06.901Z,101055.48
2017-10-19T19:14:35.894Z,101060.05
2017-10-19T19:17:04.279Z,101066.02
2017-10-19T19:19:32.678Z,101058.98
2017-10-19T19:22:01.101Z,101066.36
2017-10-19T19:24:29.458Z,101073.52
2017-10-19T19:26:58.576Z,101067.38
2017-10-19T19:29:27.203Z,101060.18
2017-10-19T19:31:56.587Z,101057.98
2017-10-19T19:34:24.941Z,101066.60
2017-10-19T19:36:53.352Z,101055.86
2017-10-19T19:39:21.712Z,101060.66
2017-10-19T19:41:50.138Z,101060.72
2017-10-19T19:44:19.347Z,101065.72
2017-10-19T19:46:48.483Z,101069.67
2017-10-19T19:49:16.888Z,101071.63
2017-10-19T19:51:45.380Z,101077.41
2017-10-19T19:54:14.615Z,101065.84
2017-10-19T19:56:44.167Z,101069.12
2017-10-19T19:59:12.606Z,101067.00
2017-10-19T20:01:40.967Z,101070.63
2017-10-19T20:04:09.307Z,101072.17
2017-10-19T20:06:37.696Z,101067.55
2017-10-19T20:09:06.083Z,101075.04
2017-10-19T20:11:34.494Z,101069.19
2017-10-19T20:14:03.603Z,101067.85
2017-10-19T20:16:31.979Z,101068.19
2017-10-19T20:19:00.386Z,101071.47
2017-10-19T20:21:29.714Z,101078.75
2017-10-19T20:23:58.183Z,101071.05
2017-10-19T20:26:26.546Z,101065.59
2017-10-19T20:28:55.334Z,101069.11
2017-10-19T20:31:23.742Z,101068.50
2017-10-19T20:33:52.762Z,101065.83
2017-10-19T20:36:22.116Z,101075.48
2017-10-19T20:38:50.595Z,101070.91
2017-10-19T20:41:18.953Z,101067.58
2017-10-19T20:43:47.337Z,101063.34
2017-10-19T20:46:15.737Z,101060.75
2017-10-19T20:48:44.160Z,101060.62
2017-10-19T20:51:12.616Z,101054.08
2017-10-19T20:53:40.959Z,101054.08
2017-10-19T20:56:09.506Z,101054.19
2017-10-19T20:58:38.111Z,101051.15
2017-10-19T21:01:06.601Z,101052.28
2017-10-19T21:03:34.961Z,101047.62
2017-10-19T21:06:03.369Z,101047.69
2017-10-19T21:08:31.746Z,101048.09
2017-10-19T21:11:00.120Z,101049.77
2017-10-19T21:13:28.781Z,101050.94
2017-10-19T21:15:57.159Z,101059.86
2017-10-19T21:18:26.283Z,101051.14
2017-10-19T21:20:54.890Z,101046.38
2017-10-19T21:23:23.248Z,101047.27
2017-10-19T21:25:51.620Z,101049.89
2017-10-19T21:28:20.770Z,101044.02
2017-10-19T21:30:49.174Z,101044.45
2017-10-19T21:33:17.570Z,101043.36
2017-10-19T21:35:45.990Z,101044.61
2017-10-19T21:38:14.358Z,101026.61
2017-10-19T21:40:42.721Z,101024.32
2017-10-19T21:43:12.206Z,101027.84
2017-10-19T21:45:40.570Z,101027.86
2017-10-19T21:48:08.957Z,101033.28
2017-10-19T21:50:37.351Z,101027.30
2017-10-19T21:53:06.477Z,101027.34
2017-10-19T21:55:36.530Z,101028.62
2017-10-19T21:58:04.922Z,101034.98
2017-10-19T22:00:33.287Z,101033.31
2017-10-19T22:03:01.739Z,101033.00
2017-10-19T22:05:30.268Z,101037.53
2017-10-19T22:07:58.636Z,101030.07
2017-10-19T22:10:26.990Z,101022.33
2017-10-19T22:12:55.382Z,101018.61
2017-10-19T22:15:23.765Z,101018.94
2017-10-19T22:17:52.137Z,101006.70
2017-10-19T22:20:20.527Z,101008.11
2017-10-19T22:22:48.874Z,101003.74
2017-10-19T22:25:17.728Z,101013.42
2017-10-19T22:27:47.026Z,101005.32
2017-10-19T22:30:16.141Z,101001.41
2017-10-19T22:32:45.372Z,101008.47
2017-10-19T22:35:13.746Z,101006.17
2017-10-19T22:37:42.105Z,100997.38
2017-10-19T22:40:10.468Z,100993.54
2017-10-19T22:42:39.621Z,100998.25
2017-10-19T22:45:08.010Z,100997.92
2017-10-19T22:47:36.422Z,101005.55
2017-10-19T22:50:04.873Z,100998.41
2017-10-19T22:52:33.247Z,100990.26
2017-10-19T22:55:01.624Z,100990.33
2017-10-19T22:57:30.281Z,100982.34
2017-10-19T22:59:58.627Z,100980.19
2017-10-19T23:02:26.992Z,100973.38
2017-10-19T23:04:55.370Z,100972.63
2017-10-19T23:07:24.408Z,100977.72
2017-10-19T23:09:52.782Z,100971.15
2017-10-19T23:12:21.198Z,100966.74
2017-10-19T23:14:49.551Z,100978.92
2017-10-19T23:17:17.924Z,100970.86
2017-10-19T23:19:46.491Z,100994.30
2017-10-19T23:22:14.846Z,101000.00
2017-10-19T23:24:43.300Z,101003.88
2017-10-19T23:27:12.564Z,101004.26
2017-10-19T23:29:40.927Z,100990.06
2017-10-19T23:32:10.086Z,101003.29
2017-10-19T23:34:38.545Z,101001.25
2017-10-19T23:37:06.894Z,101008.08
2017-10-19T23:39:35.899Z,100994.89
2017-10-19T23:42:04.263Z,100990.86
2017-10-19T23:44:33.378Z,100985.38
2017-10-19T23:47:01.754Z,100995.45
2017-10-19T23:49:30.133Z,100991.31
2017-10-19T23:51:58.476Z,100993.27
2017-10-19T23:54:27.602Z,100990.41
2017-10-19T23:56:56.181Z,100980.17
2017-10-19T23:59:25.420Z,100983.41
